Delta Virtual Airport Information Service

Portland International Airport

ICAO: KPDX Country: United States
Latitude: 45.5887 Longitude: -122.597
Latest Arrival : DAC1531 (KPHX-KPDX) Latest Departure : DAL69 (1B) (KPDX-RJAA)


WX CaptureLIVE
Data provided by noaa.gov | Fetched at 23:50:11

METAR : KPDX 250353Z 32007KT 10SM FEW065 SCT180 BKN250 19/10 A3010 RMK AO2 SLP192 T01890100

TAF : KPDX 250312Z 2503/2524 32005KT P6SM SCT100 BKN250 FM250800 VRB03KT P6SM OVC100 FM251400 VRB03KT P6SM -RA BKN045 OVC060 FM252000 12003KT P6SM OVC035


Runway Data for KPDX
Data provided by openaviationdata.com

Runway ID Mag Var Hdg Length Elevation Surface ILS Freq ILS Id ILS Slope
3 18 26° 6995 ft 30 ft Asphalt -- -- --
10L 18 100° 7989 ft 30 ft Asphalt 111.3 IVDG 3
10R 18 100° 10985 ft 30 ft Asphalt 110.5 IPDX 3
21 18 206° 6995 ft 30 ft Asphalt 108.9 IGPO 0
28L 18 280° 10985 ft 30 ft Asphalt 110.5 IJMJ 3
28R 18 280° 7989 ft 30 ft Asphalt 111.3 IIAP 3

Portland International Airport, United States
Use only for reference purposes



Not for navigational purposes.